Time;durP1;ratioP1;P1;durP2;ratioP2;P2;SDS_P1;SDS_P2;PMS_P1;PMS_P2;Temp;Humidity;BMP_temperature;BMP_pressure;BME280_temperature;BME280_humidity;BME280_pressure;Samples;Min_cycle;Max_cycle;Signal;HPM_P1;HPM_P2
2023/07/07 00:02:03;;;;;;;24.08;21.77;;;614.60;2432.00;;;;;;5093225;28;20165;-78
2023/07/07 00:04:29;;;;;;;25.48;22.90;;;614.60;2432.00;;;;;;5093454;28;20028;-79
2023/07/07 00:06:55;;;;;;;24.63;22.13;;;614.50;2432.00;;;;;;5094928;28;20028;-80
2023/07/07 00:09:20;;;;;;;23.42;21.25;;;614.50;2432.00;;;;;;5093310;28;20499;-78
2023/07/07 00:11:46;;;;;;;24.48;22.02;;;614.50;2432.00;;;;;;5094764;28;20031;-80
2023/07/07 00:14:12;;;;;;;23.75;21.02;;;614.40;2432.00;;;;;;5093282;28;20454;-78
2023/07/07 00:16:38;;;;;;;24.70;22.10;;;614.40;2432.00;;;;;;5094500;28;20024;-77
2023/07/07 00:19:09;;;;;;;24.95;22.30;;;614.40;2432.00;;;;;;5092993;28;20034;-78
2023/07/07 00:21:40;;;;;;;24.50;22.08;;;614.40;2432.00;;;;;;5093987;28;20401;-78
2023/07/07 00:24:07;;;;;;;22.77;20.48;;;614.40;2432.00;;;;;;5093133;28;20093;-80
2023/07/07 00:26:34;;;;;;;22.08;19.85;;;614.40;2432.00;;;;;;5093329;28;20024;-79
2023/07/07 00:29:00;;;;;;;22.50;19.95;;;589.70;2432.00;;;;;;5093309;28;20077;-79
2023/07/07 00:31:27;;;;;;;23.05;19.23;;;589.70;2432.00;;;;;;5094541;28;20115;-78
2023/07/07 00:33:53;;;;;;;21.90;19.67;;;589.70;2432.00;;;;;;5093265;28;20031;-80
2023/07/07 00:36:18;;;;;;;20.70;18.73;;;589.70;2432.00;;;;;;5093204;28;20028;-77
2023/07/07 00:38:44;;;;;;;21.55;19.38;;;589.70;2432.00;;;;;;5092882;28;20122;-78
2023/07/07 00:41:10;;;;;;;20.95;18.17;;;589.70;2432.00;;;;;;5092963;28;20024;-77
2023/07/07 00:43:37;;;;;;;22.25;19.05;;;589.70;2432.00;;;;;;5093027;28;20060;-78
2023/07/07 00:46:03;;;;;;;21.48;18.77;;;589.70;2432.00;;;;;;5092668;28;20031;-78
2023/07/07 00:48:43;;;;;;;19.77;17.83;;;589.70;2432.00;;;;;;5094152;28;20024;-78
2023/07/07 00:51:34;;;;;;;18.90;17.02;;;614.40;2432.00;;;;;;5094040;28;20514;-79
2023/07/07 00:54:05;;;;;;;19.63;17.60;;;589.70;2432.00;;;;;;5091800;28;20034;-77
2023/07/07 00:56:37;;;;;;;20.92;18.85;;;589.70;2432.00;;;;;;5092951;28;20036;-78
2023/07/07 00:59:08;;;;;;;20.40;17.10;;;589.70;2432.00;;;;;;5087074;28;20051;-78
2023/07/07 01:01:35;;;;;;;18.95;17.20;;;589.70;2432.00;;;;;;5072637;28;20060;-78
2023/07/07 01:04:04;;;;;;;22.65;18.90;;;589.70;2432.00;;;;;;5073793;28;20036;-78
2023/07/07 01:06:35;;;;;;;21.42;19.42;;;589.70;2432.00;;;;;;5071457;28;20031;-80
2023/07/07 01:09:08;;;;;;;21.85;19.58;;;614.40;2432.00;;;;;;5074393;28;20052;-78
2023/07/07 01:11:36;;;;;;;21.60;19.30;;;614.40;2432.00;;;;;;5073108;28;20111;-78
2023/07/07 01:14:13;;;;;;;22.02;19.85;;;614.40;2432.00;;;;;;5071893;28;20130;-78
2023/07/07 01:17:06;;;;;;;21.60;19.38;;;589.70;2432.00;;;;;;5072322;28;20025;-78
2023/07/07 01:20:12;;;;;;;21.60;19.48;;;589.70;2432.00;;;;;;5073441;28;20032;-79
2023/07/07 01:23:02;;;;;;;21.08;18.88;;;589.70;2432.00;;;;;;5072088;28;20024;-79
2023/07/07 01:25:56;;;;;;;21.73;19.42;;;589.70;2432.00;;;;;;5073323;28;20028;-77
2023/07/07 01:28:45;;;;;;;20.75;18.75;;;589.70;2432.00;;;;;;5073471;28;20032;-79
2023/07/07 01:31:17;;;;;;;24.65;19.85;;;589.70;2432.00;;;;;;5073293;28;20025;-79
2023/07/07 01:33:46;;;;;;;22.33;19.95;;;589.50;2432.00;;;;;;5072306;28;20035;-78
2023/07/07 01:36:11;;;;;;;21.58;19.48;;;589.60;2432.00;;;;;;5071599;28;20074;-78
2023/07/07 01:38:43;;;;;;;21.95;19.77;;;589.20;2432.00;;;;;;5072078;28;20032;-78
2023/07/07 01:41:32;;;;;;;24.80;21.77;;;589.40;2432.00;;;;;;5072143;28;20396;-80
2023/07/07 01:44:19;;;;;;;24.40;21.23;;;589.40;2432.00;;;;;;5072308;28;20468;-79
2023/07/07 01:46:58;;;;;;;24.25;21.88;;;589.50;2432.00;;;;;;5072247;28;20464;-79
2023/07/07 01:49:46;;;;;;;22.92;20.50;;;589.50;2432.00;;;;;;5071517;28;20028;-78
2023/07/07 01:52:17;;;;;;;23.15;20.85;;;589.50;2432.00;;;;;;5071753;28;20035;-80
2023/07/07 01:54:52;;;;;;;23.95;21.58;;;589.40;2432.00;;;;;;5073097;28;20029;-79
2023/07/07 01:57:21;;;;;;;24.60;21.33;;;589.40;2432.00;;;;;;5073609;28;20021;-80
2023/07/07 01:59:47;;;;;;;23.80;20.73;;;589.40;2432.00;;;;;;5072307;28;20401;-80
2023/07/07 02:02:13;;;;;;;23.83;21.52;;;589.40;2432.00;;;;;;5071712;28;20032;-79
2023/07/07 02:04:39;;;;;;;27.00;21.15;;;589.30;2432.00;;;;;;5072558;28;20029;-79
2023/07/07 02:07:05;;;;;;;29.00;23.10;;;589.20;2432.00;;;;;;5072096;28;20419;-79
2023/07/07 02:09:33;;;;;;;26.75;23.88;;;589.20;2432.00;;;;;;5072958;28;20140;-80
2023/07/07 02:11:59;;;;;;;25.25;22.75;;;589.20;2432.00;;;;;;5071845;28;20037;-78
2023/07/07 02:14:25;;;;;;;30.80;25.08;;;589.30;2432.00;;;;;;5073013;28;20027;-80
2023/07/07 02:16:51;;;;;;;26.65;23.63;;;589.10;2432.00;;;;;;5071649;28;20487;-78
2023/07/07 02:19:17;;;;;;;28.42;25.10;;;589.20;2432.00;;;;;;5071830;28;20020;-79
2023/07/07 02:21:43;;;;;;;28.20;25.38;;;589.00;2432.00;;;;;;5071877;28;20025;-79
2023/07/07 02:24:08;;;;;;;26.15;23.45;;;588.90;2432.00;;;;;;5073050;28;20028;-77
2023/07/07 02:26:35;;;;;;;27.17;24.48;;;588.80;2432.00;;;;;;5071741;28;20024;-77
2023/07/07 02:29:01;;;;;;;28.50;25.52;;;588.80;2432.00;;;;;;5072841;28;20040;-77
2023/07/07 02:31:26;;;;;;;28.20;24.90;;;588.90;2432.00;;;;;;5074789;28;20025;-78
2023/07/07 02:33:53;;;;;;;26.70;23.98;;;589.00;2432.00;;;;;;5076321;28;20028;-76
2023/07/07 02:36:19;;;;;;;28.50;25.27;;;588.90;2432.00;;;;;;5075218;28;20035;-78
2023/07/07 02:38:46;;;;;;;28.08;25.38;;;588.80;2432.00;;;;;;5076028;28;20058;-77
2023/07/07 02:41:12;;;;;;;30.63;25.20;;;588.90;2432.00;;;;;;5076389;28;20056;-78
2023/07/07 02:43:38;;;;;;;27.20;24.58;;;564.00;2432.00;;;;;;5075204;28;20029;-78
2023/07/07 02:46:04;;;;;;;27.15;24.30;;;588.80;2432.00;;;;;;5074779;28;20025;-78
2023/07/07 02:48:30;;;;;;;47.08;24.98;;;588.90;2432.00;;;;;;5076087;28;20032;-77
2023/07/07 02:51:00;;;;;;;26.67;24.23;;;588.80;2432.00;;;;;;5076042;28;20082;-78
2023/07/07 02:53:28;;;;;;;26.45;22.85;;;588.80;2432.00;;;;;;5076579;28;20021;-79
2023/07/07 02:55:54;;;;;;;28.73;25.52;;;588.80;2432.00;;;;;;5084929;28;20116;-78
2023/07/07 02:58:20;;;;;;;27.60;24.88;;;588.80;2432.00;;;;;;5094654;28;20028;-78
2023/07/07 03:00:47;;;;;;;27.95;25.05;;;588.90;2432.00;;;;;;5094395;28;20067;-78
2023/07/07 03:03:13;;;;;;;28.13;25.23;;;588.90;2432.00;;;;;;5094537;28;20050;-77
2023/07/07 03:05:41;;;;;;;27.88;24.90;;;588.90;2432.00;;;;;;5094493;28;20369;-79
2023/07/07 03:08:06;;;;;;;26.88;24.13;;;588.90;2432.00;;;;;;5094590;28;20044;-79
2023/07/07 03:10:37;;;;;;;27.35;24.52;;;588.90;2432.00;;;;;;5094761;28;20379;-78
2023/07/07 03:13:03;;;;;;;26.70;23.88;;;588.90;2432.00;;;;;;5095328;28;20088;-77
2023/07/07 03:15:39;;;;;;;28.58;25.77;;;588.90;2432.00;;;;;;5095966;28;20028;-77
2023/07/07 03:18:13;;;;;;;29.70;25.60;;;564.10;2432.00;;;;;;5095682;28;20422;-78
2023/07/07 03:20:48;;;;;;;28.65;25.60;;;588.80;2432.00;;;;;;5095478;28;20028;-78
2023/07/07 03:23:17;;;;;;;31.73;26.35;;;588.80;2432.00;;;;;;5095862;28;20121;-77
2023/07/07 03:25:42;;;;;;;25.63;23.00;;;588.90;2432.00;;;;;;5094463;28;20070;-78
2023/07/07 03:28:08;;;;;;;26.88;23.63;;;589.00;2432.00;;;;;;5095481;28;20028;-77
2023/07/07 03:30:34;;;;;;;26.00;23.05;;;589.00;2432.00;;;;;;5094446;28;20024;-76
2023/07/07 03:33:00;;;;;;;27.23;24.42;;;589.10;2432.00;;;;;;5094032;28;20491;-78
2023/07/07 03:35:26;;;;;;;27.08;23.42;;;589.10;2432.00;;;;;;5094206;28;20426;-78
2023/07/07 03:37:52;;;;;;;25.90;23.42;;;589.00;2432.00;;;;;;5094152;28;20081;-78
2023/07/07 03:40:18;;;;;;;26.02;23.15;;;589.00;2432.00;;;;;;5093490;28;20036;-77
2023/07/07 03:42:44;;;;;;;29.98;25.30;;;588.90;2432.00;;;;;;5094088;28;20035;-78
2023/07/07 03:45:10;;;;;;;27.30;24.58;;;564.10;2432.00;;;;;;5095098;28;20099;-78
2023/07/07 03:47:36;;;;;;;26.08;23.45;;;588.90;2432.00;;;;;;5094855;28;20434;-77
2023/07/07 03:50:01;;;;;;;28.73;24.70;;;588.90;2432.00;;;;;;5095168;28;20024;-79
2023/07/07 03:52:27;;;;;;;30.70;25.48;;;588.80;2432.00;;;;;;5094373;28;20024;-78
2023/07/07 03:54:53;;;;;;;27.42;23.65;;;588.80;2432.00;;;;;;5097425;28;20024;-78
2023/07/07 03:57:19;;;;;;;24.63;22.05;;;564.00;2432.00;;;;;;5095996;28;20031;-78
2023/07/07 03:59:45;;;;;;;24.50;20.33;;;564.00;2432.00;;;;;;5093985;28;20042;-77
2023/07/07 04:02:12;;;;;;;23.90;21.20;;;563.90;2432.00;;;;;;5092738;28;20032;-79
2023/07/07 04:04:38;;;;;;;25.55;21.38;;;563.70;2432.00;;;;;;5095119;28;20138;-79
2023/07/07 04:07:04;;;;;;;27.48;21.40;;;563.70;2432.00;;;;;;5093829;28;20059;-79
2023/07/07 04:09:30;;;;;;;26.58;23.63;;;563.70;2432.00;;;;;;5093153;28;20059;-79
2023/07/07 04:11:55;;;;;;;29.67;24.73;;;563.70;2432.00;;;;;;5093704;28;20525;-79
2023/07/07 04:14:26;;;;;;;27.42;24.00;;;563.70;2432.00;;;;;;5093599;28;20052;-78
2023/07/07 04:16:52;;;;;;;27.40;24.40;;;563.80;2432.00;;;;;;5092901;28;20035;-79
2023/07/07 04:19:18;;;;;;;34.78;25.13;;;564.00;2432.00;;;;;;5093649;28;20376;-77
2023/07/07 04:21:44;;;;;;;26.45;23.65;;;564.00;2432.00;;;;;;5094799;28;20028;-77
2023/07/07 04:24:09;;;;;;;27.27;23.65;;;564.10;2432.00;;;;;;5094190;28;20099;-79
2023/07/07 04:26:38;;;;;;;26.30;23.58;;;564.10;2432.00;;;;;;5093450;28;20035;-78
2023/07/07 04:29:04;;;;;;;27.65;24.92;;;588.80;2432.00;;;;;;5091349;28;20028;-80
2023/07/07 04:31:30;;;;;;;27.52;23.67;;;564.10;2432.00;;;;;;5072755;28;20036;-78
2023/07/07 04:33:57;;;;;;;27.88;25.02;;;588.80;2432.00;;;;;;5073135;28;20099;-77
2023/07/07 04:36:23;;;;;;;29.20;26.02;;;588.90;2432.00;;;;;;5072593;28;20028;-77
2023/07/07 04:38:49;;;;;;;29.25;26.25;;;588.90;2432.00;;;;;;5074138;28;20060;-81
2023/07/07 04:41:21;;;;;;;30.38;27.10;;;588.90;2432.00;;;;;;5072864;28;20033;-77
2023/07/07 04:43:51;;;;;;;31.63;28.48;;;588.90;2432.00;;;;;;5072572;28;20115;-76
2023/07/07 04:46:28;;;;;;;31.60;28.40;;;589.00;2432.00;;;;;;5074349;28;20104;-79
2023/07/07 04:48:54;;;;;;;32.08;28.73;;;588.80;2432.00;;;;;;5074280;28;20060;-78
2023/07/07 04:51:20;;;;;;;30.90;27.55;;;588.80;2432.00;;;;;;5072392;28;20083;-77
2023/07/07 04:53:46;;;;;;;32.30;27.98;;;564.00;2432.00;;;;;;5071960;28;20488;-78
2023/07/07 04:56:16;;;;;;;28.17;25.25;;;563.90;2432.00;;;;;;5072588;28;20059;-78
2023/07/07 04:58:43;;;;;;;31.38;26.33;;;563.80;2432.00;;;;;;5072309;28;20495;-78
2023/07/07 05:01:15;;;;;;;33.00;25.58;;;563.70;2432.00;;;;;;5072558;28;20465;-79
2023/07/07 05:03:42;;;;;;;30.85;26.88;;;563.70;2432.00;;;;;;5072554;28;20036;-80
2023/07/07 05:06:09;;;;;;;30.48;26.77;;;563.70;2432.00;;;;;;5071168;28;20040;-78
2023/07/07 05:08:37;;;;;;;29.80;26.83;;;563.90;2432.00;;;;;;5071628;28;20041;-78
2023/07/07 05:11:04;;;;;;;30.17;27.13;;;563.90;2432.00;;;;;;5072047;28;20024;-77
2023/07/07 05:13:30;;;;;;;33.88;27.98;;;564.00;2432.00;;;;;;5072389;28;20039;-77
2023/07/07 05:16:09;;;;;;;29.60;26.00;;;563.90;2432.00;;;;;;5073905;28;20024;-79
2023/07/07 05:18:35;;;;;;;28.10;25.00;;;564.10;2432.00;;;;;;5071412;28;20060;-76
2023/07/07 05:21:01;;;;;;;32.22;26.58;;;588.80;2432.00;;;;;;5073834;28;20024;-78
2023/07/07 05:23:27;;;;;;;30.88;26.30;;;588.90;2432.00;;;;;;5072362;28;20039;-78
2023/07/07 05:25:53;;;;;;;27.75;24.95;;;589.00;2432.00;;;;;;5072005;28;20446;-77
2023/07/07 05:28:20;;;;;;;26.50;23.58;;;589.10;2432.00;;;;;;5072316;28;20111;-77
2023/07/07 05:30:47;;;;;;;25.77;23.23;;;588.90;2432.00;;;;;;5073636;28;20035;-77
2023/07/07 05:33:13;;;;;;;25.98;23.33;;;589.20;2432.00;;;;;;5071929;28;20060;-78
2023/07/07 05:35:50;;;;;;;28.15;24.25;;;589.30;2432.00;;;;;;5072212;28;20025;-78
2023/07/07 05:38:17;;;;;;;25.70;22.90;;;589.30;2432.00;;;;;;5071428;28;20036;-80
2023/07/07 05:40:45;;;;;;;29.15;22.30;;;589.40;2432.00;;;;;;5072124;28;20098;-81
2023/07/07 05:43:15;;;;;;;30.13;21.40;;;589.50;2432.00;;;;;;5072026;28;20469;-77
2023/07/07 05:45:41;;;;;;;22.63;20.30;;;589.60;2432.00;;;;;;5071962;28;20055;-77
2023/07/07 05:48:08;;;;;;;23.38;18.98;;;589.70;2432.00;;;;;;5071776;28;20032;-77
2023/07/07 05:50:34;;;;;;;20.40;17.60;;;589.70;2432.00;;;;;;5071833;28;20025;-77
2023/07/07 05:53:01;;;;;;;15.18;12.85;;;589.70;2432.00;;;;;;5071795;28;20031;-78
2023/07/07 05:55:32;;;;;;;14.43;11.23;;;614.40;2432.00;;;;;;5072031;28;20380;-80
2023/07/07 05:57:59;;;;;;;12.70;9.77;;;614.40;2432.00;;;;;;5073116;28;20040;-80
2023/07/07 06:00:27;;;;;;;11.32;10.05;;;614.50;2432.00;;;;;;5071910;28;20122;-81
2023/07/07 06:02:54;;;;;;;10.55;9.45;;;614.60;2432.00;;;;;;5071872;28;20029;-79
2023/07/07 06:05:19;;;;;;;11.80;9.38;;;614.70;2432.00;;;;;;5075398;28;20059;-78
2023/07/07 06:07:46;;;;;;;10.05;9.05;;;614.70;2432.00;;;;;;5075486;28;20021;-79
2023/07/07 06:10:12;;;;;;;14.02;9.68;;;614.70;2432.00;;;;;;5075433;28;20160;-79
2023/07/07 06:12:38;;;;;;;13.05;9.77;;;614.80;2432.00;;;;;;5077223;28;20537;-80
2023/07/07 06:15:05;;;;;;;11.50;9.40;;;614.90;2432.00;;;;;;5076439;28;20053;-82
2023/07/07 06:17:31;;;;;;;9.95;8.85;;;615.00;2432.00;;;;;;5074996;28;20472;-79
2023/07/07 06:19:56;;;;;;;10.32;9.05;;;615.10;2432.00;;;;;;5076933;28;20034;-78
2023/07/07 06:22:22;;;;;;;13.15;9.05;;;615.10;2432.00;;;;;;5075091;28;20028;-79
2023/07/07 06:24:48;;;;;;;10.02;8.85;;;615.20;2432.00;;;;;;5075259;28;20052;-79
2023/07/07 06:27:14;;;;;;;10.88;9.23;;;640.00;2432.00;;;;;;5075395;28;20090;-80
2023/07/07 06:29:40;;;;;;;10.57;8.95;;;615.30;2432.00;;;;;;5075061;28;20032;-79
2023/07/07 06:32:06;;;;;;;11.38;10.02;;;640.00;2432.00;;;;;;5075161;28;20044;-80
2023/07/07 06:34:32;;;;;;;10.68;8.75;;;640.10;2432.00;;;;;;5075160;28;20035;-79
2023/07/07 06:36:59;;;;;;;12.15;8.90;;;640.30;2432.00;;;;;;5075068;28;20021;-80
2023/07/07 06:39:27;;;;;;;9.50;7.90;;;640.40;2432.00;;;;;;5075107;28;20028;-80
2023/07/07 06:41:54;;;;;;;8.27;7.43;;;640.40;2432.00;;;;;;5074797;28;20060;-80
2023/07/07 06:44:20;;;;;;;9.30;7.35;;;640.40;2432.00;;;;;;5075111;28;20040;-81
2023/07/07 06:46:45;;;;;;;8.88;7.53;;;640.50;2432.00;;;;;;5075046;28;20025;-80
2023/07/07 06:49:11;;;;;;;13.55;8.77;;;640.50;2432.00;;;;;;5074654;28;20120;-81
2023/07/07 06:51:37;;;;;;;9.55;8.55;;;640.70;2432.00;;;;;;5074237;28;20024;-79
2023/07/07 06:54:03;;;;;;;9.88;8.88;;;640.70;2432.00;;;;;;5074390;28;20025;-80
2023/07/07 06:56:29;;;;;;;9.77;8.77;;;640.70;2432.00;;;;;;5075754;28;20372;-80
2023/07/07 06:58:55;;;;;;;11.93;8.45;;;640.60;2432.00;;;;;;5074764;28;20024;-80
2023/07/07 07:01:22;;;;;;;9.93;8.90;;;640.70;2432.00;;;;;;5074788;28;20391;-80
2023/07/07 07:03:48;;;;;;;10.23;9.07;;;640.70;2432.00;;;;;;5074319;28;20024;-82
2023/07/07 07:06:14;;;;;;;11.57;9.07;;;640.70;2432.00;;;;;;5075897;28;20150;-77
2023/07/07 07:08:39;;;;;;;9.27;8.38;;;640.70;2432.00;;;;;;5075643;28;20131;-78
2023/07/07 07:11:08;;;;;;;11.00;8.25;;;640.60;2432.00;;;;;;5074237;28;20594;-80
2023/07/07 07:13:34;;;;;;;9.77;8.77;;;640.60;2432.00;;;;;;5074185;28;20021;-80
2023/07/07 07:16:00;;;;;;;8.63;7.72;;;640.60;2432.00;;;;;;5073797;28;20031;-81
2023/07/07 07:18:26;;;;;;;9.45;7.93;;;640.70;2432.00;;;;;;5074137;28;20033;-80
2023/07/07 07:20:56;;;;;;;10.25;7.90;;;640.70;2432.00;;;;;;5074522;28;20032;-81
2023/07/07 07:23:22;;;;;;;9.82;8.27;;;640.70;2432.00;;;;;;5076064;28;20035;-82
2023/07/07 07:25:48;;;;;;;10.45;8.00;;;640.70;2432.00;;;;;;5075257;28;20350;-81
2023/07/07 07:28:15;;;;;;;10.80;8.70;;;640.70;2432.00;;;;;;5075536;28;20029;-82
2023/07/07 07:30:42;;;;;;;11.40;8.98;;;640.70;2432.00;;;;;;5075074;28;20028;-82
2023/07/07 07:33:20;;;;;;;9.75;8.75;;;640.60;2432.00;;;;;;5075971;28;20032;-81
2023/07/07 07:35:49;;;;;;;10.65;9.07;;;640.80;2432.00;;;;;;5094418;28;20123;-82
2023/07/07 07:38:17;;;;;;;9.25;8.18;;;640.80;2432.00;;;;;;5094053;28;20032;-80
2023/07/07 07:40:43;;;;;;;11.90;8.65;;;640.80;2432.00;;;;;;5093197;28;20028;-82
2023/07/07 07:43:09;;;;;;;9.65;8.48;;;640.90;2432.00;;;;;;5094641;28;20035;-82
2023/07/07 07:45:35;;;;;;;9.57;7.72;;;665.70;2432.00;;;;;;5095592;28;20020;-83
2023/07/07 07:48:03;;;;;;;10.27;8.10;;;665.90;2432.00;;;;;;5095777;28;20024;-81
2023/07/07 07:50:31;;;;;;;10.35;8.02;;;666.00;2432.00;;;;;;5093879;28;20035;-79
2023/07/07 07:52:57;;;;;;;12.00;8.18;;;666.30;2432.00;;;;;;5093585;28;20020;-78
2023/07/07 07:55:23;;;;;;;14.70;8.32;;;666.20;2432.00;;;;;;5093950;28;20495;-79
2023/07/07 07:57:49;;;;;;;9.15;8.13;;;666.00;2432.00;;;;;;5093938;28;20028;-80
2023/07/07 08:00:15;;;;;;;8.95;8.05;;;666.20;2432.00;;;;;;5094118;28;20036;-80
2023/07/07 08:02:41;;;;;;;9.20;8.13;;;666.40;2432.00;;;;;;5094093;28;20032;-81
2023/07/07 08:05:08;;;;;;;11.52;8.80;;;666.20;2432.00;;;;;;5095510;28;20028;-83
2023/07/07 08:07:34;;;;;;;8.77;7.88;;;666.20;2432.00;;;;;;5093912;28;20056;-81
2023/07/07 08:09:59;;;;;;;10.68;8.77;;;666.10;2432.00;;;;;;5095386;28;20083;-81
2023/07/07 08:12:25;;;;;;;13.45;8.23;;;666.40;2432.00;;;;;;5094114;28;20521;-81
2023/07/07 08:14:51;;;;;;;10.18;8.07;;;691.30;2432.00;;;;;;5094801;28;20027;-80
2023/07/07 08:17:17;;;;;;;10.88;8.15;;;691.50;2432.00;;;;;;5093991;28;20539;-79
2023/07/07 08:19:46;;;;;;;14.35;8.95;;;691.90;2432.00;;;;;;5094043;28;20471;-80
2023/07/07 08:22:18;;;;;;;10.23;7.90;;;716.80;2432.00;;;;;;5092728;28;20032;-79
2023/07/07 08:24:50;;;;;;;11.43;8.93;;;716.80;2432.00;;;;;;5093866;28;20536;-82
2023/07/07 08:27:17;;;;;;;12.40;8.80;;;716.90;2432.00;;;;;;5092985;28;20020;-83
2023/07/07 08:29:43;;;;;;;10.85;9.38;;;716.90;2432.00;;;;;;5095078;28;20020;-83
2023/07/07 08:32:12;;;;;;;13.63;10.60;;;716.90;2432.00;;;;;;5095048;28;20553;-81
2023/07/07 08:34:51;;;;;;;11.55;8.63;;;692.10;2432.00;;;;;;5108002;28;20038;-79
2023/07/07 08:37:17;;;;;;;12.75;9.85;;;692.00;2432.00;;;;;;5096511;28;20464;-81
2023/07/07 08:39:44;;;;;;;10.48;9.35;;;691.80;2432.00;;;;;;5094697;28;20026;-80
2023/07/07 08:42:31;;;;;;;10.90;8.98;;;691.80;2432.00;;;;;;5093736;28;20058;-80
2023/07/07 08:45:00;;;;;;;11.50;8.68;;;691.80;2432.00;;;;;;5094029;28;20024;-80
2023/07/07 08:47:44;;;;;;;11.65;8.80;;;691.60;2432.00;;;;;;5094067;28;20027;-78
2023/07/07 08:50:16;;;;;;;11.38;8.65;;;691.40;2432.00;;;;;;5093763;28;20036;-80
2023/07/07 08:52:50;;;;;;;13.60;9.68;;;691.40;2432.00;;;;;;5094900;28;20034;-82
2023/07/07 08:55:49;;;;;;;10.23;8.93;;;691.40;2432.00;;;;;;5094052;28;20028;-78
2023/07/07 08:58:59;;;;;;;12.02;9.00;;;691.40;2432.00;;;;;;5085436;28;20032;-77
2023/07/07 09:01:56;;;;;;;10.73;9.13;;;691.50;2432.00;;;;;;5092183;28;20426;-80
2023/07/07 09:04:36;;;;;;;13.13;9.07;;;691.40;2432.00;;;;;;5092725;28;20454;-80
2023/07/07 09:07:22;;;;;;;9.90;8.48;;;691.40;2432.00;;;;;;5092999;28;20361;-80
2023/07/07 09:13:12;;;;;;;13.38;9.00;;;692.10;2432.00;;;;;;5072537;28;20110;-77
2023/07/07 09:15:41;;;;;;;10.40;9.15;;;691.90;2432.00;;;;;;5072454;28;20059;-77
2023/07/07 09:18:37;;;;;;;12.35;10.05;;;692.10;2432.00;;;;;;5072375;28;20506;-78
2023/07/07 09:21:05;;;;;;;11.88;9.18;;;692.10;2432.00;;;;;;5055381;28;20062;-79
2023/07/07 09:23:38;;;;;;;11.05;9.00;;;717.10;2432.00;;;;;;5071288;28;20071;-77
2023/07/07 09:26:24;;;;;;;16.00;11.55;;;717.20;2432.00;;;;;;5071531;28;20020;-78
2023/07/07 09:28:54;;;;;;;16.25;11.07;;;717.50;2432.00;;;;;;5071188;28;20127;-78
2023/07/07 09:31:37;;;;;;;13.45;10.02;;;742.50;2432.00;;;;;;5070741;28;20119;-80
2023/07/07 09:34:03;;;;;;;11.05;9.43;;;742.60;2432.00;;;;;;5071225;28;20384;-79
2023/07/07 09:36:33;;;;;;;15.75;10.98;;;742.90;2432.00;;;;;;5054300;28;20071;-79
2023/07/07 09:39:07;;;;;;;11.70;9.23;;;743.10;2432.00;;;;;;5072219;28;20397;-78
2023/07/07 09:41:53;;;;;;;13.98;8.85;;;743.20;2432.00;;;;;;5058577;28;20062;-78
2023/07/07 09:44:50;;;;;;;10.90;9.25;;;743.30;2432.00;;;;;;5075800;28;20037;-80
2023/07/07 09:47:19;;;;;;;9.50;8.32;;;768.10;2432.00;;;;;;5058629;28;20095;-80
2023/07/07 09:49:59;;;;;;;19.50;8.65;;;743.10;2432.00;;;;;;5084953;28;20035;-80
2023/07/07 09:52:56;;;;;;;11.10;9.93;;;742.90;2432.00;;;;;;5095478;28;20158;-81
2023/07/07 09:55:26;;;;;;;15.60;9.95;;;742.70;2432.00;;;;;;5096487;28;20025;-80
2023/07/07 09:58:18;;;;;;;15.65;9.82;;;742.80;2432.00;;;;;;5094982;28;20119;-79
2023/07/07 10:00:46;;;;;;;;;;;742.80;2432.00;;;;;;5096774;28;20503;-80
2023/07/07 10:03:37;;;;;;;10.90;9.75;;;742.80;2432.00;;;;;;5095127;28;19949;-80
2023/07/07 10:06:13;;;;;;;14.05;9.45;;;742.80;2432.00;;;;;;5092511;28;20040;-79
2023/07/07 10:08:40;;;;;;;11.57;10.23;;;743.10;2432.00;;;;;;5097266;28;20052;-87
2023/07/07 10:11:12;;;;;;;13.82;9.55;;;768.00;2432.00;;;;;;5096104;28;20032;-78
2023/07/07 10:13:38;;;;;;;10.98;9.88;;;768.40;2432.00;;;;;;5094622;28;20028;-78
2023/07/07 10:16:07;;;;;;;11.00;9.50;;;768.80;2432.00;;;;;;5094206;28;20490;-77
2023/07/07 10:18:33;;;;;;;10.32;9.23;;;793.70;2406.40;;;;;;5096131;28;20073;-80
2023/07/07 10:21:05;;;;;;;11.02;8.50;;;793.80;2406.40;;;;;;5096259;28;20077;-82
2023/07/07 10:23:30;;;;;;;;;;;794.10;2406.40;;;;;;5096107;28;20032;-81
2023/07/07 10:25:56;;;;;;;9.52;8.38;;;794.20;2380.80;;;;;;5095454;28;20348;-83
2023/07/07 10:28:24;;;;;;;10.20;9.00;;;794.30;2355.20;;;;;;5095440;28;20471;-81
2023/07/07 10:30:51;;;;;;;11.00;8.60;;;794.50;2329.60;;;;;;5094561;28;20111;-82
2023/07/07 10:33:21;;;;;;;10.13;7.90;;;819.20;2355.20;;;;;;5095486;28;20032;-81
2023/07/07 10:35:47;;;;;;;10.13;8.68;;;794.30;2329.60;;;;;;5095438;28;20036;-83
2023/07/07 10:38:13;;;;;;;9.35;8.40;;;794.40;2355.20;;;;;;5095362;28;20028;-81
2023/07/07 10:40:41;;;;;;;9.80;7.95;;;794.30;2355.20;;;;;;5096404;28;20026;-83
2023/07/07 10:43:15;;;;;;;13.32;8.70;;;794.00;2304.00;;;;;;5096682;28;20024;-83
2023/07/07 10:45:48;;;;;;;11.13;8.40;;;793.70;2355.20;;;;;;5095294;28;20035;-79
2023/07/07 10:48:15;;;;;;;10.10;8.13;;;793.70;2380.80;;;;;;5095057;28;20039;-82
2023/07/07 10:51:13;;;;;;;12.57;9.05;;;793.60;2355.20;;;;;;5093991;28;20032;-82
2023/07/07 10:53:49;;;;;;;9.85;8.82;;;768.80;2380.80;;;;;;5096113;28;20070;-82
2023/07/07 10:56:33;;;;;;;13.43;10.73;;;768.60;2380.80;;;;;;5095300;28;20379;-81
2023/07/07 10:59:26;;;;;;;9.95;8.82;;;768.70;2406.40;;;;;;5096383;28;20020;-79
2023/07/07 11:01:58;;;;;;;10.98;8.27;;;793.70;2380.80;;;;;;5096126;28;20039;-82
2023/07/07 11:04:30;;;;;;;;;;;768.70;2355.20;;;;;;5095361;28;20028;-78
2023/07/07 11:06:59;;;;;;;12.20;8.68;;;768.30;2406.40;;;;;;5094924;28;19939;-79
2023/07/07 11:09:34;;;;;;;11.00;9.15;;;743.30;2432.00;;;;;;5094291;28;20052;-78
2023/07/07 11:12:25;;;;;;;13.02;9.10;;;743.10;2432.00;;;;;;5094764;28;20024;-79
2023/07/07 11:14:57;;;;;;;11.93;8.63;;;742.90;2432.00;;;;;;5095839;28;20122;-80
2023/07/07 11:17:35;;;;;;;21.67;9.50;;;742.80;2432.00;;;;;;5094773;28;20039;-79
2023/07/07 11:20:37;;;;;;;18.38;9.48;;;742.50;2432.00;;;;;;5094682;28;20380;-79
2023/07/07 11:23:21;;;;;;;10.43;8.15;;;742.50;2432.00;;;;;;5095639;28;20555;-79
2023/07/07 11:26:19;;;;;;;10.00;8.80;;;742.40;2432.00;;;;;;5094212;28;20028;-79
2023/07/07 11:28:51;;;;;;;10.57;7.95;;;742.40;2432.00;;;;;;5094193;28;20028;-78
2023/07/07 11:31:46;;;;;;;11.60;8.65;;;743.10;2432.00;;;;;;5099424;28;20043;-77
2023/07/07 11:35:04;;;;;;;9.25;8.23;;;768.10;2329.60;;;;;;5094436;28;20127;-79
2023/07/07 11:38:01;;;;;;;11.25;8.98;;;768.40;2355.20;;;;;;5095662;28;20030;-81
2023/07/07 11:40:47;;;;;;;10.32;8.57;;;793.70;2380.80;;;;;;5094342;28;20032;-79
2023/07/07 11:43:25;;;;;;;12.10;8.63;;;768.90;2278.40;;;;;;5093930;28;20066;-79
2023/07/07 11:46:21;;;;;;;9.88;8.60;;;768.40;2278.40;;;;;;5095939;28;20113;-79
2023/07/07 11:48:53;;;;;;;12.43;9.23;;;743.10;2432.00;;;;;;5095578;28;20088;-80
2023/07/07 11:51:33;;;;;;;11.52;9.02;;;742.40;2432.00;;;;;;5094113;28;20030;-79
2023/07/07 11:54:29;;;;;;;17.10;10.50;;;717.70;2432.00;;;;;;5094231;28;20028;-77
2023/07/07 11:57:15;;;;;;;11.32;10.20;;;717.70;2432.00;;;;;;5093789;28;20060;-78
2023/07/07 12:00:02;;;;;;;13.18;9.65;;;717.30;2432.00;;;;;;5093916;28;20035;-78
2023/07/07 12:02:46;;;;;;;12.40;10.40;;;717.30;2432.00;;;;;;5093739;28;20476;-79
2023/07/07 12:05:18;;;;;;;12.80;10.38;;;717.30;2432.00;;;;;;5093478;28;20046;-78
2023/07/07 12:08:16;;;;;;;12.10;10.10;;;717.20;2432.00;;;;;;5093920;28;20020;-78
2023/07/07 12:10:46;;;;;;;12.70;9.50;;;717.10;2432.00;;;;;;5096844;28;20036;-80
2023/07/07 12:13:56;;;;;;;14.55;10.35;;;717.10;2432.00;;;;;;5094486;28;20422;-77
2023/07/07 12:16:23;;;;;;;13.30;10.70;;;717.10;2432.00;;;;;;5094327;28;20024;-79
2023/07/07 12:18:56;;;;;;;12.55;9.93;;;717.10;2432.00;;;;;;5094624;28;20028;-79
2023/07/07 12:21:33;;;;;;;14.52;9.93;;;717.10;2432.00;;;;;;5094472;28;20032;-80
2023/07/07 12:24:24;;;;;;;15.98;10.07;;;717.20;2432.00;;;;;;5093627;28;20043;-82
2023/07/07 12:27:04;;;;;;;12.68;10.48;;;717.10;2432.00;;;;;;5093380;28;20036;-78
2023/07/07 12:29:30;;;;;;;11.93;10.10;;;717.20;2432.00;;;;;;5092063;28;20040;-78
2023/07/07 12:31:56;;;;;;;18.52;10.93;;;717.20;2432.00;;;;;;5088070;28;20119;-77